sensor_id;sensor_type;location;lat;lon;timestamp;P1;durP1;ratioP1;P2;durP2;ratioP2
44189;SDS011;29856;52.144;5.430;2024-01-30T00:00:07;95.22;;;53.20;;
44189;SDS011;29856;52.144;5.430;2024-01-30T00:02:33;87.47;;;50.67;;
44189;SDS011;29856;52.144;5.430;2024-01-30T00:04:59;50.00;;;29.48;;
44189;SDS011;29856;52.144;5.430;2024-01-30T00:07:28;99.50;;;51.83;;
44189;SDS011;29856;52.144;5.430;2024-01-30T00:09:53;76.07;;;43.22;;
44189;SDS011;29856;52.144;5.430;2024-01-30T00:12:19;65.47;;;37.85;;
44189;SDS011;29856;52.144;5.430;2024-01-30T00:14:44;50.97;;;28.92;;
44189;SDS011;29856;52.144;5.430;2024-01-30T00:17:10;71.40;;;40.78;;
44189;SDS011;29856;52.144;5.430;2024-01-30T00:19:35;74.22;;;39.80;;
44189;SDS011;29856;52.144;5.430;2024-01-30T00:22:01;28.00;;;17.70;;
44189;SDS011;29856;52.144;5.430;2024-01-30T00:24:26;30.63;;;19.30;;
44189;SDS011;29856;52.144;5.430;2024-01-30T00:26:52;25.60;;;16.95;;
44189;SDS011;29856;52.144;5.430;2024-01-30T00:29:17;28.48;;;17.73;;
44189;SDS011;29856;52.144;5.430;2024-01-30T00:31:43;30.55;;;17.52;;
44189;SDS011;29856;52.144;5.430;2024-01-30T00:34:08;27.52;;;14.95;;
44189;SDS011;29856;52.144;5.430;2024-01-30T00:36:34;19.15;;;12.98;;
44189;SDS011;29856;52.144;5.430;2024-01-30T00:38:59;34.08;;;20.85;;
44189;SDS011;29856;52.144;5.430;2024-01-30T00:41:25;27.10;;;16.73;;
44189;SDS011;29856;52.144;5.430;2024-01-30T00:43:50;22.15;;;13.95;;
44189;SDS011;29856;52.144;5.430;2024-01-30T00:46:16;30.38;;;18.75;;
44189;SDS011;29856;52.144;5.430;2024-01-30T00:48:41;23.75;;;16.10;;
44189;SDS011;29856;52.144;5.430;2024-01-30T00:51:06;28.63;;;15.02;;
44189;SDS011;29856;52.144;5.430;2024-01-30T00:53:32;22.75;;;14.50;;
44189;SDS011;29856;52.144;5.430;2024-01-30T00:55:58;27.30;;;16.38;;
44189;SDS011;29856;52.144;5.430;2024-01-30T00:58:23;22.20;;;14.27;;
44189;SDS011;29856;52.144;5.430;2024-01-30T01:00:48;18.95;;;12.07;;
44189;SDS011;29856;52.144;5.430;2024-01-30T01:03:14;24.75;;;15.55;;
44189;SDS011;29856;52.144;5.430;2024-01-30T01:05:39;21.42;;;13.80;;
44189;SDS011;29856;52.144;5.430;2024-01-30T01:08:05;28.35;;;15.80;;
44189;SDS011;29856;52.144;5.430;2024-01-30T01:10:31;17.20;;;11.95;;
44189;SDS011;29856;52.144;5.430;2024-01-30T01:12:56;15.45;;;10.95;;
44189;SDS011;29856;52.144;5.430;2024-01-30T01:15:22;16.67;;;11.80;;
44189;SDS011;29856;52.144;5.430;2024-01-30T01:17:47;13.90;;;10.85;;
44189;SDS011;29856;52.144;5.430;2024-01-30T01:20:15;17.63;;;10.98;;
44189;SDS011;29856;52.144;5.430;2024-01-30T01:22:41;15.45;;;10.75;;
44189;SDS011;29856;52.144;5.430;2024-01-30T01:25:06;18.60;;;11.05;;
44189;SDS011;29856;52.144;5.430;2024-01-30T01:27:32;15.45;;;11.05;;
44189;SDS011;29856;52.144;5.430;2024-01-30T01:29:57;17.75;;;11.73;;
44189;SDS011;29856;52.144;5.430;2024-01-30T01:32:23;15.48;;;10.50;;
44189;SDS011;29856;52.144;5.430;2024-01-30T01:34:48;18.17;;;10.73;;
44189;SDS011;29856;52.144;5.430;2024-01-30T01:37:17;15.65;;;11.00;;
44189;SDS011;29856;52.144;5.430;2024-01-30T01:39:42;17.38;;;10.90;;
44189;SDS011;29856;52.144;5.430;2024-01-30T01:42:08;15.18;;;10.40;;
44189;SDS011;29856;52.144;5.430;2024-01-30T01:44:33;16.38;;;10.35;;
44189;SDS011;29856;52.144;5.430;2024-01-30T01:46:58;16.70;;;10.30;;
44189;SDS011;29856;52.144;5.430;2024-01-30T01:49:24;16.88;;;9.73;;
44189;SDS011;29856;52.144;5.430;2024-01-30T01:51:51;12.65;;;8.88;;
44189;SDS011;29856;52.144;5.430;2024-01-30T01:54:20;13.95;;;9.73;;
44189;SDS011;29856;52.144;5.430;2024-01-30T01:56:45;13.88;;;9.32;;
44189;SDS011;29856;52.144;5.430;2024-01-30T01:59:12;15.90;;;9.45;;
44189;SDS011;29856;52.144;5.430;2024-01-30T02:01:38;15.20;;;9.60;;
44189;SDS011;29856;52.144;5.430;2024-01-30T02:04:04;15.50;;;10.18;;
44189;SDS011;29856;52.144;5.430;2024-01-30T02:06:30;14.75;;;9.25;;
44189;SDS011;29856;52.144;5.430;2024-01-30T02:08:56;17.88;;;9.35;;
44189;SDS011;29856;52.144;5.430;2024-01-30T02:11:22;12.23;;;8.93;;
44189;SDS011;29856;52.144;5.430;2024-01-30T02:13:48;13.15;;;8.90;;
44189;SDS011;29856;52.144;5.430;2024-01-30T02:16:14;13.98;;;9.05;;
44189;SDS011;29856;52.144;5.430;2024-01-30T02:18:40;15.48;;;8.68;;
44189;SDS011;29856;52.144;5.430;2024-01-30T02:21:05;18.83;;;10.07;;
44189;SDS011;29856;52.144;5.430;2024-01-30T02:23:31;12.70;;;8.25;;
44189;SDS011;29856;52.144;5.430;2024-01-30T02:25:58;12.02;;;8.65;;
44189;SDS011;29856;52.144;5.430;2024-01-30T02:28:23;12.98;;;8.93;;
44189;SDS011;29856;52.144;5.430;2024-01-30T02:30:49;13.88;;;9.02;;
44189;SDS011;29856;52.144;5.430;2024-01-30T02:33:14;12.10;;;8.13;;
44189;SDS011;29856;52.144;5.430;2024-01-30T02:35:40;10.38;;;8.10;;
44189;SDS011;29856;52.144;5.430;2024-01-30T02:38:05;13.05;;;7.82;;
44189;SDS011;29856;52.144;5.430;2024-01-30T02:40:31;12.02;;;7.97;;
44189;SDS011;29856;52.144;5.430;2024-01-30T02:42:58;11.98;;;8.43;;
44189;SDS011;29856;52.144;5.430;2024-01-30T02:45:25;14.18;;;8.80;;
44189;SDS011;29856;52.144;5.430;2024-01-30T02:47:50;11.52;;;8.23;;
44189;SDS011;29856;52.144;5.430;2024-01-30T02:50:17;13.90;;;8.48;;
44189;SDS011;29856;52.144;5.430;2024-01-30T02:52:42;11.00;;;7.85;;
44189;SDS011;29856;52.144;5.430;2024-01-30T02:55:08;14.68;;;10.27;;
44189;SDS011;29856;52.144;5.430;2024-01-30T02:57:33;15.85;;;9.75;;
44189;SDS011;29856;52.144;5.430;2024-01-30T02:59:59;12.48;;;8.60;;
44189;SDS011;29856;52.144;5.430;2024-01-30T03:02:25;15.07;;;9.00;;
44189;SDS011;29856;52.144;5.430;2024-01-30T03:04:50;19.10;;;10.85;;
44189;SDS011;29856;52.144;5.430;2024-01-30T03:07:16;13.02;;;9.65;;
44189;SDS011;29856;52.144;5.430;2024-01-30T03:09:42;15.63;;;10.05;;
44189;SDS011;29856;52.144;5.430;2024-01-30T03:12:07;16.73;;;10.48;;
44189;SDS011;29856;52.144;5.430;2024-01-30T03:14:33;13.75;;;9.98;;
44189;SDS011;29856;52.144;5.430;2024-01-30T03:16:58;17.58;;;11.15;;
44189;SDS011;29856;52.144;5.430;2024-01-30T03:19:24;17.17;;;11.75;;
44189;SDS011;29856;52.144;5.430;2024-01-30T03:21:49;20.23;;;11.50;;
44189;SDS011;29856;52.144;5.430;2024-01-30T03:24:15;19.40;;;11.50;;
44189;SDS011;29856;52.144;5.430;2024-01-30T03:26:40;16.45;;;9.93;;
44189;SDS011;29856;52.144;5.430;2024-01-30T03:29:06;24.20;;;13.20;;
44189;SDS011;29856;52.144;5.430;2024-01-30T03:31:31;20.50;;;10.93;;
44189;SDS011;29856;52.144;5.430;2024-01-30T03:33:57;14.40;;;9.98;;
44189;SDS011;29856;52.144;5.430;2024-01-30T03:36:22;13.68;;;9.65;;
44189;SDS011;29856;52.144;5.430;2024-01-30T03:38:48;17.67;;;10.82;;
44189;SDS011;29856;52.144;5.430;2024-01-30T03:41:13;15.13;;;11.10;;
44189;SDS011;29856;52.144;5.430;2024-01-30T03:43:39;17.20;;;9.93;;
44189;SDS011;29856;52.144;5.430;2024-01-30T03:46:05;16.45;;;11.07;;
44189;SDS011;29856;52.144;5.430;2024-01-30T03:48:31;18.83;;;11.68;;
44189;SDS011;29856;52.144;5.430;2024-01-30T03:50:56;16.45;;;11.15;;
44189;SDS011;29856;52.144;5.430;2024-01-30T03:53:22;14.18;;;10.48;;
44189;SDS011;29856;52.144;5.430;2024-01-30T03:55:47;16.52;;;10.02;;
44189;SDS011;29856;52.144;5.430;2024-01-30T03:58:13;15.43;;;9.55;;
44189;SDS011;29856;52.144;5.430;2024-01-30T04:00:38;14.38;;;9.05;;
44189;SDS011;29856;52.144;5.430;2024-01-30T04:03:04;16.27;;;9.63;;
44189;SDS011;29856;52.144;5.430;2024-01-30T04:05:29;15.55;;;9.05;;
44189;SDS011;29856;52.144;5.430;2024-01-30T04:07:55;12.13;;;7.88;;
44189;SDS011;29856;52.144;5.430;2024-01-30T04:10:20;10.60;;;7.50;;
44189;SDS011;29856;52.144;5.430;2024-01-30T04:12:46;12.90;;;8.38;;
44189;SDS011;29856;52.144;5.430;2024-01-30T04:15:11;10.45;;;7.00;;
44189;SDS011;29856;52.144;5.430;2024-01-30T04:17:37;13.40;;;8.60;;
44189;SDS011;29856;52.144;5.430;2024-01-30T04:20:02;11.98;;;7.45;;
44189;SDS011;29856;52.144;5.430;2024-01-30T04:22:28;10.45;;;7.18;;
44189;SDS011;29856;52.144;5.430;2024-01-30T04:24:53;11.20;;;6.95;;
44189;SDS011;29856;52.144;5.430;2024-01-30T04:27:19;10.30;;;7.88;;
44189;SDS011;29856;52.144;5.430;2024-01-30T04:29:44;9.80;;;7.38;;
44189;SDS011;29856;52.144;5.430;2024-01-30T04:32:10;12.70;;;7.30;;
44189;SDS011;29856;52.144;5.430;2024-01-30T04:34:38;10.20;;;7.43;;
44189;SDS011;29856;52.144;5.430;2024-01-30T04:37:03;13.07;;;7.80;;
44189;SDS011;29856;52.144;5.430;2024-01-30T04:39:29;18.27;;;7.95;;
44189;SDS011;29856;52.144;5.430;2024-01-30T04:41:54;10.00;;;7.45;;
44189;SDS011;29856;52.144;5.430;2024-01-30T04:44:20;11.50;;;8.25;;
44189;SDS011;29856;52.144;5.430;2024-01-30T04:46:45;9.88;;;7.32;;
44189;SDS011;29856;52.144;5.430;2024-01-30T04:49:11;11.02;;;7.97;;
44189;SDS011;29856;52.144;5.430;2024-01-30T04:51:36;12.52;;;7.65;;
44189;SDS011;29856;52.144;5.430;2024-01-30T04:54:02;11.40;;;7.68;;
44189;SDS011;29856;52.144;5.430;2024-01-30T04:56:27;10.52;;;7.75;;
44189;SDS011;29856;52.144;5.430;2024-01-30T04:58:53;13.15;;;8.23;;
44189;SDS011;29856;52.144;5.430;2024-01-30T05:01:18;10.57;;;7.35;;
44189;SDS011;29856;52.144;5.430;2024-01-30T05:03:44;9.52;;;7.35;;
44189;SDS011;29856;52.144;5.430;2024-01-30T05:06:10;11.00;;;7.20;;
44189;SDS011;29856;52.144;5.430;2024-01-30T05:08:35;12.10;;;7.53;;
44189;SDS011;29856;52.144;5.430;2024-01-30T05:11:01;11.73;;;7.78;;
44189;SDS011;29856;52.144;5.430;2024-01-30T05:13:26;11.90;;;7.25;;
44189;SDS011;29856;52.144;5.430;2024-01-30T05:15:51;13.45;;;7.57;;
44189;SDS011;29856;52.144;5.430;2024-01-30T05:18:17;14.00;;;7.68;;
44189;SDS011;29856;52.144;5.430;2024-01-30T05:20:42;20.98;;;8.13;;
44189;SDS011;29856;52.144;5.430;2024-01-30T05:23:08;10.82;;;7.80;;
44189;SDS011;29856;52.144;5.430;2024-01-30T05:25:33;12.25;;;7.47;;
44189;SDS011;29856;52.144;5.430;2024-01-30T05:27:59;13.40;;;8.10;;
44189;SDS011;29856;52.144;5.430;2024-01-30T05:30:24;10.20;;;7.50;;
44189;SDS011;29856;52.144;5.430;2024-01-30T05:32:50;12.50;;;7.50;;
44189;SDS011;29856;52.144;5.430;2024-01-30T05:35:15;13.45;;;7.88;;
44189;SDS011;29856;52.144;5.430;2024-01-30T05:37:40;10.75;;;7.07;;
44189;SDS011;29856;52.144;5.430;2024-01-30T05:40:06;12.15;;;6.72;;
44189;SDS011;29856;52.144;5.430;2024-01-30T05:42:32;9.32;;;7.00;;
44189;SDS011;29856;52.144;5.430;2024-01-30T05:44:57;11.85;;;7.68;;
44189;SDS011;29856;52.144;5.430;2024-01-30T05:47:23;11.60;;;8.35;;
44189;SDS011;29856;52.144;5.430;2024-01-30T05:49:48;11.93;;;7.28;;
44189;SDS011;29856;52.144;5.430;2024-01-30T05:52:14;10.80;;;7.43;;
44189;SDS011;29856;52.144;5.430;2024-01-30T05:54:39;13.27;;;8.68;;
44189;SDS011;29856;52.144;5.430;2024-01-30T05:57:05;10.30;;;7.82;;
44189;SDS011;29856;52.144;5.430;2024-01-30T05:59:30;13.07;;;7.70;;
44189;SDS011;29856;52.144;5.430;2024-01-30T06:01:56;11.73;;;7.35;;
44189;SDS011;29856;52.144;5.430;2024-01-30T06:04:21;10.27;;;6.68;;
44189;SDS011;29856;52.144;5.430;2024-01-30T06:06:47;11.90;;;7.50;;
44189;SDS011;29856;52.144;5.430;2024-01-30T06:09:13;11.82;;;7.10;;
44189;SDS011;29856;52.144;5.430;2024-01-30T06:11:38;13.73;;;8.13;;
44189;SDS011;29856;52.144;5.430;2024-01-30T06:14:04;14.32;;;8.45;;
44189;SDS011;29856;52.144;5.430;2024-01-30T06:16:29;11.13;;;7.03;;
44189;SDS011;29856;52.144;5.430;2024-01-30T06:18:55;9.80;;;7.00;;
44189;SDS011;29856;52.144;5.430;2024-01-30T06:21:21;11.45;;;7.70;;
44189;SDS011;29856;52.144;5.430;2024-01-30T06:23:47;10.55;;;7.60;;
44189;SDS011;29856;52.144;5.430;2024-01-30T06:26:12;10.50;;;6.70;;
44189;SDS011;29856;52.144;5.430;2024-01-30T06:28:38;10.90;;;8.10;;
44189;SDS011;29856;52.144;5.430;2024-01-30T06:31:03;11.20;;;7.18;;
44189;SDS011;29856;52.144;5.430;2024-01-30T06:33:29;8.73;;;6.72;;
44189;SDS011;29856;52.144;5.430;2024-01-30T06:35:54;9.80;;;7.82;;
44189;SDS011;29856;52.144;5.430;2024-01-30T06:38:20;8.65;;;7.00;;
44189;SDS011;29856;52.144;5.430;2024-01-30T06:40:45;15.38;;;8.05;;
44189;SDS011;29856;52.144;5.430;2024-01-30T06:43:11;9.05;;;7.32;;
44189;SDS011;29856;52.144;5.430;2024-01-30T06:45:36;10.90;;;7.53;;
44189;SDS011;29856;52.144;5.430;2024-01-30T06:48:02;13.02;;;7.78;;
44189;SDS011;29856;52.144;5.430;2024-01-30T06:50:27;11.85;;;7.57;;
44189;SDS011;29856;52.144;5.430;2024-01-30T06:52:53;11.85;;;7.53;;
44189;SDS011;29856;52.144;5.430;2024-01-30T06:55:18;15.48;;;8.68;;
44189;SDS011;29856;52.144;5.430;2024-01-30T06:57:44;13.25;;;7.43;;
44189;SDS011;29856;52.144;5.430;2024-01-30T07:00:09;12.57;;;7.72;;
44189;SDS011;29856;52.144;5.430;2024-01-30T07:02:35;13.90;;;7.65;;
44189;SDS011;29856;52.144;5.430;2024-01-30T07:05:01;13.02;;;7.82;;
44189;SDS011;29856;52.144;5.430;2024-01-30T07:07:26;11.20;;;8.27;;
44189;SDS011;29856;52.144;5.430;2024-01-30T07:09:52;11.90;;;7.43;;
44189;SDS011;29856;52.144;5.430;2024-01-30T07:12:17;13.20;;;7.18;;
44189;SDS011;29856;52.144;5.430;2024-01-30T07:14:43;9.93;;;7.03;;
44189;SDS011;29856;52.144;5.430;2024-01-30T07:17:08;9.80;;;6.18;;
44189;SDS011;29856;52.144;5.430;2024-01-30T07:19:34;12.38;;;7.30;;
44189;SDS011;29856;52.144;5.430;2024-01-30T07:21:59;12.23;;;7.32;;
44189;SDS011;29856;52.144;5.430;2024-01-30T07:24:25;10.82;;;7.93;;
44189;SDS011;29856;52.144;5.430;2024-01-30T07:26:51;12.65;;;6.97;;
44189;SDS011;29856;52.144;5.430;2024-01-30T07:29:16;12.30;;;7.15;;
44189;SDS011;29856;52.144;5.430;2024-01-30T07:31:42;12.32;;;7.05;;
44189;SDS011;29856;52.144;5.430;2024-01-30T07:34:07;11.38;;;7.47;;
44189;SDS011;29856;52.144;5.430;2024-01-30T07:36:33;10.32;;;7.18;;
44189;SDS011;29856;52.144;5.430;2024-01-30T07:38:59;13.00;;;7.18;;
44189;SDS011;29856;52.144;5.430;2024-01-30T07:41:24;13.02;;;7.50;;
44189;SDS011;29856;52.144;5.430;2024-01-30T07:43:50;10.93;;;7.95;;
44189;SDS011;29856;52.144;5.430;2024-01-30T07:46:15;10.38;;;7.47;;
44189;SDS011;29856;52.144;5.430;2024-01-30T07:48:41;10.77;;;7.15;;
44189;SDS011;29856;52.144;5.430;2024-01-30T07:51:06;12.25;;;7.35;;
44189;SDS011;29856;52.144;5.430;2024-01-30T07:53:32;10.82;;;7.20;;
44189;SDS011;29856;52.144;5.430;2024-01-30T07:55:57;12.90;;;7.43;;
44189;SDS011;29856;52.144;5.430;2024-01-30T07:58:23;11.77;;;7.25;;
44189;SDS011;29856;52.144;5.430;2024-01-30T08:00:48;16.40;;;7.70;;
44189;SDS011;29856;52.144;5.430;2024-01-30T08:03:14;13.05;;;7.43;;
44189;SDS011;29856;52.144;5.430;2024-01-30T08:05:39;14.05;;;7.72;;
44189;SDS011;29856;52.144;5.430;2024-01-30T08:08:05;12.00;;;6.65;;
44189;SDS011;29856;52.144;5.430;2024-01-30T08:10:31;11.15;;;7.10;;
44189;SDS011;29856;52.144;5.430;2024-01-30T08:12:56;12.73;;;7.75;;
44189;SDS011;29856;52.144;5.430;2024-01-30T08:15:21;12.70;;;7.20;;
44189;SDS011;29856;52.144;5.430;2024-01-30T08:17:47;10.40;;;6.80;;
44189;SDS011;29856;52.144;5.430;2024-01-30T08:20:12;14.07;;;7.45;;
44189;SDS011;29856;52.144;5.430;2024-01-30T08:22:38;10.98;;;7.72;;
44189;SDS011;29856;52.144;5.430;2024-01-30T08:25:04;17.27;;;7.32;;
44189;SDS011;29856;52.144;5.430;2024-01-30T08:27:30;10.20;;;6.68;;
44189;SDS011;29856;52.144;5.430;2024-01-30T08:29:56;12.15;;;7.75;;
44189;SDS011;29856;52.144;5.430;2024-01-30T08:32:21;13.18;;;7.90;;
44189;SDS011;29856;52.144;5.430;2024-01-30T08:34:47;14.38;;;7.22;;
44189;SDS011;29856;52.144;5.430;2024-01-30T08:37:13;16.70;;;7.82;;
44189;SDS011;29856;52.144;5.430;2024-01-30T08:39:38;17.38;;;8.23;;
44189;SDS011;29856;52.144;5.430;2024-01-30T08:42:04;14.60;;;7.47;;
44189;SDS011;29856;52.144;5.430;2024-01-30T08:44:29;15.88;;;7.82;;
44189;SDS011;29856;52.144;5.430;2024-01-30T08:46:55;14.75;;;7.63;;
44189;SDS011;29856;52.144;5.430;2024-01-30T08:49:20;16.10;;;7.53;;
44189;SDS011;29856;52.144;5.430;2024-01-30T08:51:46;19.20;;;8.38;;
44189;SDS011;29856;52.144;5.430;2024-01-30T08:54:11;18.67;;;7.15;;
44189;SDS011;29856;52.144;5.430;2024-01-30T08:56:37;12.82;;;7.95;;
44189;SDS011;29856;52.144;5.430;2024-01-30T08:59:02;18.90;;;8.48;;
44189;SDS011;29856;52.144;5.430;2024-01-30T09:01:28;11.68;;;7.90;;
44189;SDS011;29856;52.144;5.430;2024-01-30T09:03:53;18.25;;;8.13;;
44189;SDS011;29856;52.144;5.430;2024-01-30T09:06:19;19.17;;;8.00;;
44189;SDS011;29856;52.144;5.430;2024-01-30T09:08:44;14.45;;;7.95;;
44189;SDS011;29856;52.144;5.430;2024-01-30T09:11:11;18.60;;;7.80;;
44189;SDS011;29856;52.144;5.430;2024-01-30T09:13:37;17.30;;;8.10;;
44189;SDS011;29856;52.144;5.430;2024-01-30T09:16:03;18.60;;;7.75;;
44189;SDS011;29856;52.144;5.430;2024-01-30T09:18:29;20.00;;;8.25;;
44189;SDS011;29856;52.144;5.430;2024-01-30T09:20:55;17.65;;;7.35;;
44189;SDS011;29856;52.144;5.430;2024-01-30T09:23:20;14.23;;;6.93;;
44189;SDS011;29856;52.144;5.430;2024-01-30T09:25:46;16.20;;;7.55;;
44189;SDS011;29856;52.144;5.430;2024-01-30T09:28:11;16.25;;;7.80;;
44189;SDS011;29856;52.144;5.430;2024-01-30T09:30:37;18.13;;;7.53;;
44189;SDS011;29856;52.144;5.430;2024-01-30T09:33:02;18.00;;;8.05;;
44189;SDS011;29856;52.144;5.430;2024-01-30T09:35:28;12.23;;;7.32;;
44189;SDS011;29856;52.144;5.430;2024-01-30T09:37:53;13.20;;;7.25;;
44189;SDS011;29856;52.144;5.430;2024-01-30T09:40:19;12.15;;;7.65;;
44189;SDS011;29856;52.144;5.430;2024-01-30T09:42:47;15.75;;;7.80;;
44189;SDS011;29856;52.144;5.430;2024-01-30T09:45:14;15.20;;;7.65;;
44189;SDS011;29856;52.144;5.430;2024-01-30T09:47:40;13.80;;;7.05;;
44189;SDS011;29856;52.144;5.430;2024-01-30T09:50:07;14.25;;;7.40;;
44189;SDS011;29856;52.144;5.430;2024-01-30T09:52:33;16.25;;;7.50;;
44189;SDS011;29856;52.144;5.430;2024-01-30T09:54:59;16.73;;;7.45;;
44189;SDS011;29856;52.144;5.430;2024-01-30T09:57:25;20.88;;;7.63;;
44189;SDS011;29856;52.144;5.430;2024-01-30T09:59:51;11.70;;;6.95;;
44189;SDS011;29856;52.144;5.430;2024-01-30T10:02:16;14.80;;;7.20;;
44189;SDS011;29856;52.144;5.430;2024-01-30T10:04:43;17.48;;;7.70;;
44189;SDS011;29856;52.144;5.430;2024-01-30T10:07:09;13.35;;;7.05;;
44189;SDS011;29856;52.144;5.430;2024-01-30T10:09:36;19.35;;;8.75;;
44189;SDS011;29856;52.144;5.430;2024-01-30T10:12:02;15.65;;;7.88;;
44189;SDS011;29856;52.144;5.430;2024-01-30T10:14:27;14.38;;;8.18;;
44189;SDS011;29856;52.144;5.430;2024-01-30T10:16:53;14.45;;;7.43;;
44189;SDS011;29856;52.144;5.430;2024-01-30T10:19:18;18.85;;;8.05;;
44189;SDS011;29856;52.144;5.430;2024-01-30T10:21:44;12.80;;;7.97;;
44189;SDS011;29856;52.144;5.430;2024-01-30T10:24:11;14.27;;;8.35;;
44189;SDS011;29856;52.144;5.430;2024-01-30T10:26:37;14.10;;;7.82;;
44189;SDS011;29856;52.144;5.430;2024-01-30T10:29:03;12.30;;;7.53;;
44189;SDS011;29856;52.144;5.430;2024-01-30T10:31:29;14.27;;;7.88;;
44189;SDS011;29856;52.144;5.430;2024-01-30T10:33:54;16.13;;;7.72;;
44189;SDS011;29856;52.144;5.430;2024-01-30T10:36:20;12.90;;;7.57;;
44189;SDS011;29856;52.144;5.430;2024-01-30T10:38:52;15.65;;;8.48;;
44189;SDS011;29856;52.144;5.430;2024-01-30T10:41:25;11.52;;;7.22;;
44189;SDS011;29856;52.144;5.430;2024-01-30T10:44:02;10.68;;;7.10;;
44189;SDS011;29856;52.144;5.430;2024-01-30T10:46:32;14.77;;;7.05;;
44189;SDS011;29856;52.144;5.430;2024-01-30T10:49:00;18.13;;;7.45;;
44189;SDS011;29856;52.144;5.430;2024-01-30T10:51:26;19.05;;;7.88;;
44189;SDS011;29856;52.144;5.430;2024-01-30T10:53:52;17.17;;;8.25;;
44189;SDS011;29856;52.144;5.430;2024-01-30T10:56:18;17.27;;;6.85;;
44189;SDS011;29856;52.144;5.430;2024-01-30T10:58:46;12.30;;;7.22;;
44189;SDS011;29856;52.144;5.430;2024-01-30T11:01:16;13.68;;;6.25;;
44189;SDS011;29856;52.144;5.430;2024-01-30T11:03:42;15.20;;;6.55;;
44189;SDS011;29856;52.144;5.430;2024-01-30T11:06:10;11.95;;;5.82;;
44189;SDS011;29856;52.144;5.430;2024-01-30T11:08:36;14.13;;;6.55;;
44189;SDS011;29856;52.144;5.430;2024-01-30T11:11:02;10.45;;;5.97;;
44189;SDS011;29856;52.144;5.430;2024-01-30T11:13:34;13.75;;;5.93;;
44189;SDS011;29856;52.144;5.430;2024-01-30T11:16:00;20.52;;;6.10;;
44189;SDS011;29856;52.144;5.430;2024-01-30T11:18:30;14.13;;;5.70;;
44189;SDS011;29856;52.144;5.430;2024-01-30T11:20:57;11.68;;;5.00;;
44189;SDS011;29856;52.144;5.430;2024-01-30T11:23:26;15.07;;;5.95;;
44189;SDS011;29856;52.144;5.430;2024-01-30T11:25:52;14.80;;;5.88;;
44189;SDS011;29856;52.144;5.430;2024-01-30T11:28:19;12.00;;;5.32;;
44189;SDS011;29856;52.144;5.430;2024-01-30T11:30:46;8.73;;;4.82;;
44189;SDS011;29856;52.144;5.430;2024-01-30T11:33:13;12.20;;;4.82;;
44189;SDS011;29856;52.144;5.430;2024-01-30T11:35:40;11.93;;;4.38;;
44189;SDS011;29856;52.144;5.430;2024-01-30T11:38:10;8.25;;;3.33;;
44189;SDS011;29856;52.144;5.430;2024-01-30T11:40:38;9.63;;;3.72;;
44189;SDS011;29856;52.144;5.430;2024-01-30T11:43:04;7.70;;;2.85;;
44189;SDS011;29856;52.144;5.430;2024-01-30T11:45:31;7.22;;;4.00;;
44189;SDS011;29856;52.144;5.430;2024-01-30T11:47:57;9.93;;;2.55;;
44189;SDS011;29856;52.144;5.430;2024-01-30T11:50:24;10.93;;;2.53;;
44189;SDS011;29856;52.144;5.430;2024-01-30T11:52:50;6.63;;;2.20;;
44189;SDS011;29856;52.144;5.430;2024-01-30T11:55:15;7.90;;;2.28;;
44189;SDS011;29856;52.144;5.430;2024-01-30T11:57:41;9.93;;;2.17;;
44189;SDS011;29856;52.144;5.430;2024-01-30T12:00:13;6.95;;;1.60;;
44189;SDS011;29856;52.144;5.430;2024-01-30T12:02:40;6.75;;;1.27;;
44189;SDS011;29856;52.144;5.430;2024-01-30T12:05:06;7.65;;;1.30;;
44189;SDS011;29856;52.144;5.430;2024-01-30T12:07:32;9.35;;;1.40;;
44189;SDS011;29856;52.144;5.430;2024-01-30T12:09:58;10.65;;;1.73;;
44189;SDS011;29856;52.144;5.430;2024-01-30T12:12:25;5.50;;;1.20;;
44189;SDS011;29856;52.144;5.430;2024-01-30T12:14:51;7.38;;;1.50;;
44189;SDS011;29856;52.144;5.430;2024-01-30T12:17:27;6.80;;;1.33;;
44189;SDS011;29856;52.144;5.430;2024-01-30T12:20:02;7.70;;;1.50;;
44189;SDS011;29856;52.144;5.430;2024-01-30T12:22:47;4.40;;;2.05;;
44189;SDS011;29856;52.144;5.430;2024-01-30T12:27:44;4.68;;;1.73;;
44189;SDS011;29856;52.144;5.430;2024-01-30T12:30:11;7.25;;;2.00;;
44189;SDS011;29856;52.144;5.430;2024-01-30T12:32:41;6.18;;;1.80;;
44189;SDS011;29856;52.144;5.430;2024-01-30T12:35:10;5.65;;;2.08;;
44189;SDS011;29856;52.144;5.430;2024-01-30T12:37:37;8.82;;;2.33;;
44189;SDS011;29856;52.144;5.430;2024-01-30T12:40:04;9.80;;;3.42;;
44189;SDS011;29856;52.144;5.430;2024-01-30T12:42:30;8.07;;;2.13;;
44189;SDS011;29856;52.144;5.430;2024-01-30T12:44:57;14.60;;;2.45;;
44189;SDS011;29856;52.144;5.430;2024-01-30T12:47:23;5.38;;;1.65;;
44189;SDS011;29856;52.144;5.430;2024-01-30T12:49:48;4.10;;;1.90;;
44189;SDS011;29856;52.144;5.430;2024-01-30T12:52:17;5.03;;;2.00;;
44189;SDS011;29856;52.144;5.430;2024-01-30T12:54:42;3.55;;;1.83;;
44189;SDS011;29856;52.144;5.430;2024-01-30T12:57:08;11.18;;;2.22;;
44189;SDS011;29856;52.144;5.430;2024-01-30T12:59:33;6.10;;;1.90;;
44189;SDS011;29856;52.144;5.430;2024-01-30T13:01:59;6.25;;;1.80;;
44189;SDS011;29856;52.144;5.430;2024-01-30T13:04:25;6.05;;;1.95;;
44189;SDS011;29856;52.144;5.430;2024-01-30T13:06:52;9.13;;;2.20;;
44189;SDS011;29856;52.144;5.430;2024-01-30T13:09:18;5.60;;;1.73;;
44189;SDS011;29856;52.144;5.430;2024-01-30T13:11:43;4.13;;;1.95;;
44189;SDS011;29856;52.144;5.430;2024-01-30T13:14:08;7.03;;;2.13;;
44189;SDS011;29856;52.144;5.430;2024-01-30T13:16:34;4.70;;;1.80;;
44189;SDS011;29856;52.144;5.430;2024-01-30T13:19:00;6.13;;;1.85;;
44189;SDS011;29856;52.144;5.430;2024-01-30T13:21:25;3.45;;;1.67;;
44189;SDS011;29856;52.144;5.430;2024-01-30T13:23:51;8.77;;;1.60;;
44189;SDS011;29856;52.144;5.430;2024-01-30T13:26:16;5.15;;;1.42;;
44189;SDS011;29856;52.144;5.430;2024-01-30T13:28:42;5.13;;;1.40;;
44189;SDS011;29856;52.144;5.430;2024-01-30T13:31:07;4.38;;;1.30;;
44189;SDS011;29856;52.144;5.430;2024-01-30T13:33:32;7.55;;;1.60;;
44189;SDS011;29856;52.144;5.430;2024-01-30T13:35:58;2.63;;;0.90;;
44189;SDS011;29856;52.144;5.430;2024-01-30T13:38:23;4.13;;;1.42;;
44189;SDS011;29856;52.144;5.430;2024-01-30T13:40:49;3.15;;;0.90;;
44189;SDS011;29856;52.144;5.430;2024-01-30T13:43:14;3.13;;;0.90;;
44189;SDS011;29856;52.144;5.430;2024-01-30T13:45:40;2.92;;;0.88;;
44189;SDS011;29856;52.144;5.430;2024-01-30T13:48:05;2.80;;;1.20;;
44189;SDS011;29856;52.144;5.430;2024-01-30T13:50:31;3.00;;;1.15;;
44189;SDS011;29856;52.144;5.430;2024-01-30T13:52:56;2.85;;;0.90;;
44189;SDS011;29856;52.144;5.430;2024-01-30T13:55:22;5.75;;;1.30;;
44189;SDS011;29856;52.144;5.430;2024-01-30T13:57:47;5.78;;;1.63;;
44189;SDS011;29856;52.144;5.430;2024-01-30T14:00:13;4.55;;;1.40;;
44189;SDS011;29856;52.144;5.430;2024-01-30T14:02:38;3.70;;;1.20;;
44189;SDS011;29856;52.144;5.430;2024-01-30T14:05:04;4.18;;;1.50;;
44189;SDS011;29856;52.144;5.430;2024-01-30T14:07:29;5.97;;;1.88;;
44189;SDS011;29856;52.144;5.430;2024-01-30T14:09:55;5.53;;;1.70;;
44189;SDS011;29856;52.144;5.430;2024-01-30T14:12:21;2.72;;;1.80;;
44189;SDS011;29856;52.144;5.430;2024-01-30T14:14:46;7.85;;;2.25;;
44189;SDS011;29856;52.144;5.430;2024-01-30T14:17:11;2.75;;;1.08;;
44189;SDS011;29856;52.144;5.430;2024-01-30T14:19:37;4.28;;;1.30;;
44189;SDS011;29856;52.144;5.430;2024-01-30T14:22:02;9.45;;;2.17;;
44189;SDS011;29856;52.144;5.430;2024-01-30T14:24:28;4.68;;;1.70;;
44189;SDS011;29856;52.144;5.430;2024-01-30T14:26:53;5.65;;;1.25;;
44189;SDS011;29856;52.144;5.430;2024-01-30T14:29:19;5.65;;;1.23;;